createdAt,value
2018-12-20T00:01:05.788Z,1.40
2018-12-20T00:03:48.256Z,3.60
2018-12-20T00:06:30.817Z,1.40
2018-12-20T00:09:13.637Z,2.03
2018-12-20T00:11:56.024Z,1.40
2018-12-20T00:14:39.184Z,1.97
2018-12-20T00:17:26.595Z,10.20
2018-12-20T00:20:09.776Z,8.10
2018-12-20T00:22:53.029Z,6.73
2018-12-20T00:25:35.510Z,3.97
2018-12-20T00:28:18.475Z,5.37
2018-12-20T00:31:01.625Z,3.27
2018-12-20T00:33:44.282Z,2.30
2018-12-20T00:36:27.360Z,1.47
2018-12-20T00:39:09.525Z,10.70
2018-12-20T00:41:52.616Z,5.13
2018-12-20T00:44:37.535Z,7.50
2018-12-20T00:47:19.836Z,5.93
2018-12-20T00:50:02.600Z,9.87
2018-12-20T00:52:45.442Z,6.77
2018-12-20T00:55:27.725Z,5.00
2018-12-20T00:58:11.219Z,2.67
2018-12-20T01:00:54.318Z,8.17
2018-12-20T01:03:37.137Z,7.90
2018-12-20T01:06:19.957Z,12.37
2018-12-20T01:09:04.418Z,10.20
2018-12-20T01:11:47.375Z,6.50
2018-12-20T01:14:30.073Z,4.93
2018-12-20T01:17:12.912Z,6.63
2018-12-20T01:19:55.544Z,6.93
2018-12-20T01:22:38.240Z,28.70
2018-12-20T01:25:20.876Z,4.00
2018-12-20T01:28:03.520Z,3.90
2018-12-20T01:30:47.047Z,2.73
2018-12-20T01:33:30.645Z,2.07
2018-12-20T01:36:13.992Z,8.20
2018-12-20T01:38:56.979Z,2.13
2018-12-20T01:41:40.102Z,4.50
2018-12-20T01:44:23.122Z,4.07
2018-12-20T01:47:05.781Z,9.80
2018-12-20T01:49:48.344Z,6.93
2018-12-20T01:52:31.214Z,1.70
2018-12-20T01:55:13.891Z,10.70
2018-12-20T01:57:56.054Z,7.03
2018-12-20T02:00:39.073Z,7.43
2018-12-20T02:03:22.001Z,15.33
2018-12-20T02:06:05.815Z,8.27
2018-12-20T02:08:48.118Z,4.50
2018-12-20T02:11:30.762Z,6.23
2018-12-20T02:14:13.778Z,27.73
2018-12-20T02:16:56.644Z,10.23
2018-12-20T02:19:40.073Z,14.73
2018-12-20T02:22:22.499Z,14.17
2018-12-20T02:25:05.748Z,8.53
2018-12-20T02:27:49.696Z,5.70
2018-12-20T02:30:32.740Z,9.27
2018-12-20T02:33:14.912Z,6.47
2018-12-20T02:35:57.757Z,15.33
2018-12-20T02:38:40.321Z,21.43
2018-12-20T02:41:22.884Z,11.47
2018-12-20T02:44:05.731Z,20.67
2018-12-20T02:46:48.482Z,25.93
2018-12-20T02:49:31.562Z,10.30
2018-12-20T02:52:14.606Z,14.07
2018-12-20T02:54:57.673Z,16.43
2018-12-20T02:57:40.072Z,13.60
2018-12-20T03:00:22.863Z,1.30
2018-12-20T03:03:05.737Z,2.27
2018-12-20T03:05:48.520Z,5.27
2018-12-20T03:08:31.340Z,14.23
2018-12-20T03:11:14.938Z,9.03
2018-12-20T03:13:57.725Z,11.90
2018-12-20T03:16:40.409Z,1.93
2018-12-20T03:19:22.863Z,6.90
2018-12-20T03:22:05.630Z,22.27
2018-12-20T03:24:48.729Z,11.60
2018-12-20T03:27:30.982Z,5.10
2018-12-20T03:30:13.704Z,2.60
2018-12-20T03:32:56.907Z,4.40
2018-12-20T03:35:40.420Z,6.83
2018-12-20T03:38:23.055Z,2.43
2018-12-20T03:41:06.549Z,6.30
2018-12-20T03:43:50.010Z,5.80
2018-12-20T03:46:34.291Z,14.17
2018-12-20T03:49:17.154Z,8.63
2018-12-20T03:51:59.469Z,1.80
2018-12-20T03:54:43.124Z,4.57
2018-12-20T03:57:26.143Z,16.53
2018-12-20T04:00:09.813Z,15.47
2018-12-20T04:02:53.402Z,13.70
2018-12-20T04:05:36.486Z,5.07
2018-12-20T04:08:18.961Z,6.40
2018-12-20T04:11:01.528Z,16.27
2018-12-20T04:13:44.559Z,20.10
2018-12-20T04:16:26.940Z,8.47
2018-12-20T04:19:09.738Z,9.00
2018-12-20T04:21:52.331Z,9.73
2018-12-20T04:24:36.347Z,4.90
2018-12-20T04:27:19.162Z,18.83
2018-12-20T04:30:01.656Z,12.17
2018-12-20T04:32:44.676Z,8.00
2018-12-20T04:35:27.010Z,12.13
2018-12-20T04:38:09.779Z,6.57
2018-12-20T04:40:51.993Z,8.50
2018-12-20T04:43:35.183Z,6.03
2018-12-20T04:46:17.630Z,21.07
2018-12-20T04:49:00.434Z,24.87
2018-12-20T04:51:43.776Z,14.73
2018-12-20T04:54:27.111Z,11.17
2018-12-20T04:57:09.276Z,46.90
2018-12-20T04:59:52.004Z,12.57
2018-12-20T05:02:35.016Z,17.70
2018-12-20T05:05:17.451Z,20.60
2018-12-20T05:08:00.429Z,9.43
2018-12-20T05:10:43.103Z,6.90
2018-12-20T05:13:25.965Z,20.53
2018-12-20T05:16:08.735Z,7.00
2018-12-20T05:18:51.313Z,3.63
2018-12-20T05:21:34.109Z,6.50
2018-12-20T05:24:16.581Z,2.83
2018-12-20T05:26:59.921Z,10.30
2018-12-20T05:29:42.356Z,11.87
2018-12-20T05:32:24.995Z,5.53
2018-12-20T05:35:08.183Z,4.60
2018-12-20T05:37:50.487Z,4.97
2018-12-20T05:40:33.065Z,2.80
2018-12-20T05:43:16.921Z,8.53
2018-12-20T05:46:04.480Z,11.53
2018-12-20T05:48:44.589Z,31.53
2018-12-20T05:51:27.165Z,8.33
2018-12-20T05:54:09.805Z,14.63
2018-12-20T05:56:52.652Z,11.40
2018-12-20T05:59:35.566Z,12.67
2018-12-20T06:02:18.088Z,3.17
2018-12-20T06:05:00.809Z,6.90
2018-12-20T06:07:43.424Z,12.50
2018-12-20T06:10:26.358Z,29.83
2018-12-20T06:13:09.216Z,18.20
2018-12-20T06:15:51.737Z,16.47
2018-12-20T06:18:34.444Z,11.90
2018-12-20T06:21:17.167Z,38.10
2018-12-20T06:23:59.841Z,9.07
2018-12-20T06:26:42.492Z,11.50
2018-12-20T06:29:25.147Z,3.73
2018-12-20T06:32:08.128Z,12.97
2018-12-20T06:34:50.677Z,6.10
2018-12-20T06:37:33.298Z,4.40
2018-12-20T06:40:16.919Z,2.80
2018-12-20T06:42:59.035Z,4.00
2018-12-20T06:45:42.069Z,7.63
2018-12-20T06:48:24.695Z,3.10
2018-12-20T06:51:07.325Z,5.70
2018-12-20T06:53:50.681Z,4.80
2018-12-20T06:56:33.656Z,6.93
2018-12-20T06:59:16.476Z,11.03
2018-12-20T07:01:59.406Z,22.23
2018-12-20T07:04:42.072Z,2.40
2018-12-20T07:07:24.688Z,5.10
2018-12-20T07:10:08.173Z,8.10
2018-12-20T07:12:50.410Z,10.23
2018-12-20T07:15:33.564Z,7.60
2018-12-20T07:18:15.803Z,2.30
2018-12-20T07:20:58.627Z,4.03
2018-12-20T07:23:41.305Z,10.60
2018-12-20T07:26:24.100Z,20.80
2018-12-20T07:29:07.129Z,14.93
2018-12-20T07:31:49.487Z,9.13
2018-12-20T07:34:32.051Z,17.00
2018-12-20T07:37:14.875Z,8.67
2018-12-20T07:39:57.417Z,12.13
2018-12-20T07:42:40.119Z,10.20
2018-12-20T07:45:22.996Z,13.33
2018-12-20T07:48:05.561Z,67.03
2018-12-20T07:50:48.276Z,14.20
2018-12-20T07:53:31.106Z,91.43
2018-12-20T07:56:13.769Z,69.87
2018-12-20T07:58:56.504Z,67.13
2018-12-20T08:01:39.296Z,75.70
2018-12-20T08:04:22.494Z,32.80
2018-12-20T08:07:04.750Z,57.50
2018-12-20T08:09:47.459Z,160.97
2018-12-20T08:12:30.070Z,100.93
2018-12-20T08:15:12.858Z,92.33
2018-12-20T08:17:55.604Z,94.03
2018-12-20T08:20:38.045Z,144.37
2018-12-20T08:23:20.701Z,84.13
2018-12-20T08:26:03.363Z,97.03
2018-12-20T08:28:46.349Z,42.60
2018-12-20T08:31:28.761Z,30.70
2018-12-20T08:34:11.640Z,44.67
2018-12-20T08:36:54.377Z,27.33
2018-12-20T08:39:37.019Z,22.73
2018-12-20T08:42:19.860Z,33.17
2018-12-20T08:45:02.493Z,55.97
2018-12-20T08:47:45.072Z,100.23
2018-12-20T08:50:28.396Z,70.03
2018-12-20T08:53:10.672Z,14.40
2018-12-20T08:55:53.428Z,36.70
2018-12-20T08:58:36.172Z,37.93
2018-12-20T09:01:19.433Z,64.77
2018-12-20T09:04:01.679Z,94.07
2018-12-20T09:06:44.486Z,51.97
2018-12-20T09:09:27.058Z,18.80
2018-12-20T09:12:10.173Z,18.70
2018-12-20T09:14:52.628Z,20.17
2018-12-20T09:17:35.392Z,15.93
2018-12-20T09:20:17.968Z,94.70
2018-12-20T09:23:00.463Z,35.70
2018-12-20T09:25:43.305Z,83.10
2018-12-20T09:28:27.105Z,69.60
2018-12-20T09:31:09.315Z,13.80
2018-12-20T09:33:52.747Z,18.97
2018-12-20T09:36:35.244Z,15.83
2018-12-20T09:39:17.495Z,34.07
2018-12-20T09:42:00.260Z,12.63
2018-12-20T09:44:43.536Z,7.43
2018-12-20T09:47:30.557Z,17.00
2018-12-20T09:50:13.317Z,1.50
2018-12-20T09:52:55.967Z,19.77
2018-12-20T09:55:38.729Z,8.47
2018-12-20T09:58:21.450Z,5.80
2018-12-20T10:01:04.233Z,2.93
2018-12-20T10:03:47.560Z,20.00
2018-12-20T10:06:30.412Z,9.87
2018-12-20T10:09:13.212Z,8.90
2018-12-20T10:11:55.925Z,6.20
2018-12-20T10:14:38.537Z,2.87
2018-12-20T10:17:21.299Z,6.03
2018-12-20T10:20:03.829Z,4.37
2018-12-20T10:22:46.429Z,16.67
2018-12-20T10:25:28.998Z,4.10
2018-12-20T10:28:11.896Z,9.03
2018-12-20T10:30:54.437Z,7.03
2018-12-20T10:33:37.044Z,12.07
2018-12-20T10:36:19.726Z,17.70
2018-12-20T10:39:02.748Z,4.13
2018-12-20T10:41:45.120Z,6.40
2018-12-20T10:44:27.830Z,5.03
2018-12-20T10:47:15.550Z,3.40
2018-12-20T10:49:58.184Z,2.90
2018-12-20T10:52:40.847Z,2.90
2018-12-20T10:55:23.509Z,16.40
2018-12-20T10:58:06.158Z,8.27
2018-12-20T11:00:54.132Z,6.67
2018-12-20T11:03:42.000Z,4.63
2018-12-20T11:06:29.812Z,3.87
2018-12-20T11:09:17.372Z,7.87
2018-12-20T11:12:04.885Z,5.70
2018-12-20T11:14:48.023Z,9.43
2018-12-20T11:17:37.389Z,12.10
2018-12-20T11:20:16.570Z,12.10
2018-12-20T11:22:59.972Z,7.00
2018-12-20T11:25:43.353Z,3.60
2018-12-20T11:28:25.950Z,9.60
2018-12-20T11:31:11.067Z,3.23
2018-12-20T11:33:53.948Z,13.50
2018-12-20T11:36:36.053Z,3.27
2018-12-20T11:39:18.733Z,4.73
2018-12-20T11:42:01.384Z,2.33
2018-12-20T11:44:45.961Z,3.67
2018-12-20T11:47:29.654Z,8.10
2018-12-20T11:50:12.488Z,6.73
2018-12-20T11:52:55.219Z,6.07
2018-12-20T11:55:37.862Z,8.10
2018-12-20T11:58:21.039Z,9.93
2018-12-20T12:01:03.471Z,15.93
2018-12-20T12:03:46.033Z,5.77
2018-12-20T12:06:28.727Z,10.30
2018-12-20T12:09:11.572Z,6.27
2018-12-20T12:11:54.963Z,6.67
2018-12-20T12:14:38.424Z,19.73
2018-12-20T12:17:21.746Z,10.20
2018-12-20T12:20:04.619Z,10.33
2018-12-20T12:22:47.081Z,10.33
2018-12-20T12:25:30.104Z,14.00
2018-12-20T12:28:12.317Z,9.30
2018-12-20T12:30:55.250Z,5.83
2018-12-20T12:33:37.876Z,8.50
2018-12-20T12:36:21.176Z,8.00
2018-12-20T12:39:05.906Z,7.27
2018-12-20T12:41:48.841Z,7.70
2018-12-20T12:44:32.285Z,21.60
2018-12-20T12:47:16.771Z,17.93
2018-12-20T12:49:59.445Z,15.10
2018-12-20T12:52:42.169Z,13.90
2018-12-20T12:55:24.783Z,14.00
2018-12-20T12:58:07.767Z,14.97
2018-12-20T13:00:50.697Z,15.20
2018-12-20T13:03:32.927Z,15.67
2018-12-20T13:06:16.190Z,7.83
2018-12-20T13:08:58.708Z,13.03
2018-12-20T13:11:41.580Z,6.47
2018-12-20T13:14:24.093Z,8.03
2018-12-20T13:17:06.581Z,7.80
2018-12-20T13:19:49.756Z,8.20
2018-12-20T13:22:32.289Z,6.50
2018-12-20T13:25:15.487Z,4.63
2018-12-20T13:27:58.568Z,5.30
2018-12-20T13:30:44.841Z,5.43
2018-12-20T13:33:28.997Z,5.50
2018-12-20T13:36:15.559Z,8.20
2018-12-20T13:38:58.537Z,4.90
2018-12-20T13:41:41.584Z,3.90
2018-12-20T13:44:25.731Z,4.90
2018-12-20T13:47:08.523Z,7.53
2018-12-20T13:49:50.636Z,3.87
2018-12-20T13:52:33.768Z,3.47
2018-12-20T13:55:17.371Z,7.33
2018-12-20T13:57:59.585Z,8.17
2018-12-20T14:00:42.247Z,4.17
2018-12-20T14:03:24.796Z,7.50
2018-12-20T14:06:07.574Z,7.63
2018-12-20T14:08:50.069Z,4.50
2018-12-20T14:11:32.830Z,7.97
2018-12-20T14:14:15.573Z,8.63
2018-12-20T14:16:58.268Z,2.70
2018-12-20T14:19:40.792Z,6.20
2018-12-20T14:22:23.534Z,6.23
2018-12-20T14:25:08.512Z,42.30
2018-12-20T14:27:50.980Z,15.40
2018-12-20T14:30:33.645Z,7.30
2018-12-20T14:36:02.994Z,64.70
2018-12-20T14:38:55.088Z,5.27
2018-12-20T14:41:39.242Z,7.03
2018-12-20T14:44:22.937Z,5.37
2018-12-20T14:47:05.697Z,4.07
2018-12-20T14:49:48.271Z,2.83
2018-12-20T14:52:35.496Z,3.03
2018-12-20T14:55:19.403Z,7.87
2018-12-20T14:58:02.584Z,4.67
2018-12-20T15:00:44.916Z,4.67
2018-12-20T15:03:28.460Z,7.60
2018-12-20T15:06:10.911Z,5.40
2018-12-20T15:08:53.618Z,18.13
2018-12-20T15:11:36.132Z,11.93
2018-12-20T15:14:18.818Z,8.07
2018-12-20T15:17:01.529Z,3.83
2018-12-20T15:19:44.160Z,6.07
2018-12-20T15:22:28.155Z,4.20
2018-12-20T15:25:10.624Z,8.33
2018-12-20T15:27:53.232Z,5.17
2018-12-20T15:30:35.904Z,5.33
2018-12-20T15:33:18.526Z,3.67
2018-12-20T15:36:01.367Z,20.00
2018-12-20T15:38:44.212Z,5.77
2018-12-20T15:41:26.669Z,9.17
2018-12-20T15:44:09.844Z,3.70
2018-12-20T15:46:52.600Z,2.87
2018-12-20T15:49:41.927Z,1.30
2018-12-20T15:52:19.544Z,7.37
2018-12-20T15:55:02.637Z,2.50
2018-12-20T15:57:45.398Z,15.73
2018-12-20T16:00:28.066Z,10.30
2018-12-20T16:03:10.570Z,8.30
2018-12-20T16:05:53.078Z,11.20
2018-12-20T16:08:36.141Z,7.27
2018-12-20T16:11:18.373Z,8.53
2018-12-20T16:14:01.112Z,2.97
2018-12-20T16:16:44.130Z,7.63
2018-12-20T16:19:26.308Z,3.67
2018-12-20T16:22:08.905Z,12.63
2018-12-20T16:24:51.605Z,5.33
2018-12-20T16:27:34.105Z,13.13
2018-12-20T16:30:16.716Z,3.97
2018-12-20T16:32:59.377Z,2.70
2018-12-20T16:35:42.112Z,2.37
2018-12-20T16:38:24.657Z,4.00
2018-12-20T16:41:07.382Z,5.07
2018-12-20T16:43:50.142Z,18.20
2018-12-20T16:46:32.983Z,1.97
2018-12-20T16:49:15.390Z,4.07
2018-12-20T16:51:57.948Z,2.80
2018-12-20T16:54:40.700Z,11.00
2018-12-20T16:57:23.182Z,10.03
2018-12-20T17:00:06.711Z,12.93
2018-12-20T17:02:49.425Z,17.10
2018-12-20T17:05:31.615Z,9.93
2018-12-20T17:08:14.306Z,22.43
2018-12-20T17:10:56.894Z,12.03
2018-12-20T17:13:39.486Z,4.20
2018-12-20T17:16:22.280Z,17.97
2018-12-20T17:19:04.944Z,11.90
2018-12-20T17:21:47.667Z,12.03
2018-12-20T17:24:30.443Z,16.97
2018-12-20T17:27:13.002Z,28.10
2018-12-20T17:29:55.441Z,12.23
2018-12-20T17:32:37.821Z,7.30
2018-12-20T17:35:20.745Z,18.60
2018-12-20T17:38:03.601Z,6.40
2018-12-20T17:40:46.096Z,2.07
2018-12-20T17:43:29.013Z,3.23
2018-12-20T17:46:11.817Z,16.50
2018-12-20T17:48:53.957Z,9.00
2018-12-20T17:51:36.733Z,49.67
2018-12-20T17:54:19.482Z,7.40
2018-12-20T17:57:02.129Z,5.93
2018-12-20T17:59:44.584Z,9.73
2018-12-20T18:02:27.471Z,23.13
2018-12-20T18:05:09.754Z,22.33
2018-12-20T18:07:52.597Z,28.57
2018-12-20T18:10:35.191Z,4.43
2018-12-20T18:13:17.769Z,3.67
2018-12-20T18:16:00.310Z,9.00
2018-12-20T18:21:40.675Z,7.70
2018-12-20T18:24:33.356Z,5.60
2018-12-20T18:27:16.371Z,8.20
2018-12-20T18:29:59.175Z,9.43
2018-12-20T18:32:41.732Z,5.60
2018-12-20T18:35:24.672Z,8.00
2018-12-20T18:38:07.132Z,3.23
2018-12-20T18:40:49.970Z,2.50
2018-12-20T18:43:32.717Z,2.60
2018-12-20T18:46:15.643Z,4.23
2018-12-20T18:48:57.919Z,4.70
2018-12-20T18:51:40.452Z,4.47
2018-12-20T18:54:23.717Z,4.50
2018-12-20T18:57:06.648Z,8.83
2018-12-20T18:59:50.013Z,4.13
2018-12-20T19:02:33.587Z,5.03
2018-12-20T19:05:16.853Z,5.23
2018-12-20T19:07:59.616Z,1.90
2018-12-20T19:10:42.490Z,3.53
2018-12-20T19:13:25.666Z,5.17
2018-12-20T19:16:09.060Z,16.83
2018-12-20T19:18:51.812Z,3.70
2018-12-20T19:21:34.353Z,4.43
2018-12-20T19:24:17.169Z,23.77
2018-12-20T19:26:59.662Z,13.67
2018-12-20T19:29:43.568Z,23.97
2018-12-20T19:32:26.968Z,4.40
2018-12-20T19:35:09.751Z,25.27
2018-12-20T19:37:55.641Z,13.07
2018-12-20T19:40:38.053Z,8.00
2018-12-20T19:43:20.943Z,8.93
2018-12-20T19:46:03.397Z,17.33
2018-12-20T19:48:46.433Z,15.23
2018-12-20T19:51:29.708Z,7.30
2018-12-20T19:54:12.548Z,10.47
2018-12-20T19:56:55.228Z,12.70
2018-12-20T19:59:38.776Z,11.83
2018-12-20T20:02:21.609Z,2.90
2018-12-20T20:05:04.701Z,5.20
2018-12-20T20:07:47.813Z,3.20
2018-12-20T20:10:30.515Z,44.77
2018-12-20T20:13:19.266Z,7.67
2018-12-20T20:15:58.536Z,4.20
2018-12-20T20:18:41.162Z,48.13
2018-12-20T20:21:24.011Z,24.20
2018-12-20T20:24:06.483Z,35.37
2018-12-20T20:26:50.022Z,50.30
2018-12-20T20:29:32.686Z,23.43
2018-12-20T20:32:24.564Z,33.97
2018-12-20T20:35:07.389Z,70.67
2018-12-20T20:37:49.652Z,60.53
2018-12-20T20:40:32.812Z,139.97
2018-12-20T20:43:16.477Z,57.23
2018-12-20T20:45:59.936Z,52.63
2018-12-20T20:48:42.147Z,18.43
2018-12-20T20:51:25.655Z,12.20
2018-12-20T20:54:08.031Z,9.70
2018-12-20T20:56:50.696Z,24.43
2018-12-20T20:59:33.293Z,8.83
2018-12-20T21:02:16.128Z,7.10
2018-12-20T21:04:59.015Z,14.83
2018-12-20T21:07:41.774Z,8.97
2018-12-20T21:10:24.488Z,16.93
2018-12-20T21:13:08.032Z,2.70
2018-12-20T21:15:50.590Z,6.27
2018-12-20T21:18:33.287Z,58.03
2018-12-20T21:21:15.845Z,14.50
2018-12-20T21:23:58.724Z,9.10
2018-12-20T21:26:41.268Z,7.10
2018-12-20T21:29:23.800Z,9.33
2018-12-20T21:32:06.552Z,5.67
2018-12-20T21:34:50.137Z,6.27
2018-12-20T21:37:35.535Z,10.43
2018-12-20T21:40:18.866Z,8.83
2018-12-20T21:43:01.456Z,5.63
2018-12-20T21:45:44.753Z,10.43
2018-12-20T21:48:32.282Z,6.83
2018-12-20T21:51:14.527Z,7.57
2018-12-20T21:53:57.952Z,8.00
2018-12-20T21:56:41.840Z,14.83
2018-12-20T21:59:24.650Z,7.20
2018-12-20T22:02:08.226Z,5.67
2018-12-20T22:04:51.053Z,6.73
2018-12-20T22:07:33.613Z,10.03
2018-12-20T22:10:16.892Z,17.47
2018-12-20T22:13:00.458Z,10.00
2018-12-20T22:15:42.905Z,13.33
2018-12-20T22:18:31.024Z,7.20
2018-12-20T22:21:14.357Z,7.93
2018-12-20T22:23:56.932Z,6.93
2018-12-20T22:26:39.804Z,5.87
2018-12-20T22:29:23.361Z,9.47
2018-12-20T22:32:06.497Z,8.13
2018-12-20T22:34:50.626Z,7.27
2018-12-20T22:37:37.418Z,9.27
2018-12-20T22:40:21.003Z,11.77
2018-12-20T22:43:03.965Z,9.80
2018-12-20T22:45:55.611Z,10.00
2018-12-20T22:48:38.401Z,7.17
2018-12-20T22:51:23.887Z,9.33
2018-12-20T22:54:06.320Z,9.53
2018-12-20T22:56:48.952Z,6.70
2018-12-20T22:59:46.524Z,10.80
2018-12-20T23:05:37.014Z,5.07
2018-12-20T23:08:43.390Z,5.13
2018-12-20T23:11:27.776Z,6.17
2018-12-20T23:14:13.635Z,5.50
2018-12-20T23:16:56.855Z,6.57
2018-12-20T23:19:42.607Z,10.60
2018-12-20T23:22:28.138Z,5.37
2018-12-20T23:25:13.668Z,6.73
2018-12-20T23:27:57.805Z,4.27
2018-12-20T23:30:40.129Z,4.30
2018-12-20T23:33:22.802Z,3.77
2018-12-20T23:36:05.789Z,4.60
2018-12-20T23:38:50.920Z,6.47
2018-12-20T23:42:00.562Z,5.70
2018-12-20T23:44:44.242Z,4.93
2018-12-20T23:50:49.620Z,5.63
